createdAt,value
2022-08-28T00:02:25.013Z,25.66
2022-08-28T00:07:28.378Z,25.66
2022-08-28T00:12:32.462Z,25.65
2022-08-28T00:17:38.406Z,25.63
2022-08-28T00:22:53.702Z,25.68
2022-08-28T00:27:59.806Z,25.65
2022-08-28T00:33:35.166Z,25.68
2022-08-28T00:38:38.723Z,25.72
2022-08-28T00:43:48.216Z,25.73
2022-08-28T00:48:52.416Z,25.79
2022-08-28T00:54:07.715Z,25.78
2022-08-28T00:59:15.178Z,25.77
2022-08-28T01:04:21.549Z,25.74
2022-08-28T01:09:29.593Z,25.70
2022-08-28T01:14:35.845Z,25.62
2022-08-28T01:20:02.490Z,25.57
2022-08-28T01:25:17.058Z,25.55
2022-08-28T01:30:23.310Z,25.54
2022-08-28T01:35:41.087Z,25.55
2022-08-28T01:40:47.103Z,25.52
2022-08-28T01:45:56.153Z,25.52
2022-08-28T01:50:59.662Z,25.50
2022-08-28T01:56:08.321Z,25.51
2022-08-28T02:01:16.632Z,25.50
2022-08-28T02:06:21.163Z,25.48
2022-08-28T02:11:25.249Z,25.49
2022-08-28T02:16:30.162Z,25.50
2022-08-28T02:21:33.515Z,25.50
2022-08-28T02:26:36.730Z,25.46
2022-08-28T02:31:40.947Z,25.44
2022-08-28T02:36:44.537Z,25.47
2022-08-28T02:41:48.147Z,25.43
2022-08-28T02:46:51.761Z,25.42
2022-08-28T02:51:58.665Z,25.38
2022-08-28T02:57:02.944Z,25.40
2022-08-28T03:02:07.311Z,25.39
2022-08-28T03:07:11.144Z,25.34
2022-08-28T03:12:15.254Z,25.31
2022-08-28T03:17:19.406Z,25.22
2022-08-28T03:22:22.890Z,25.17
2022-08-28T03:27:26.090Z,25.19
2022-08-28T03:32:30.013Z,25.23
2022-08-28T03:37:34.146Z,25.24
2022-08-28T03:42:37.414Z,25.26
2022-08-28T03:47:43.152Z,25.27
2022-08-28T03:52:46.820Z,25.28
2022-08-28T03:57:50.756Z,25.27
2022-08-28T04:02:54.201Z,25.26
2022-08-28T04:07:57.644Z,25.28
2022-08-28T04:13:01.360Z,25.32
2022-08-28T04:18:04.797Z,25.42
2022-08-28T04:23:08.113Z,25.46
2022-08-28T04:28:11.984Z,25.51
2022-08-28T04:33:16.296Z,25.59
2022-08-28T04:38:21.425Z,25.67
2022-08-28T04:43:24.994Z,25.75
2022-08-28T04:48:28.766Z,25.78
2022-08-28T04:53:33.257Z,25.85
2022-08-28T04:58:38.545Z,26.00
2022-08-28T05:03:42.341Z,26.12
2022-08-28T05:08:45.697Z,26.23
2022-08-28T05:13:51.101Z,26.38
2022-08-28T05:19:03.058Z,26.51
2022-08-28T05:24:07.502Z,27.27
2022-08-28T05:29:11.957Z,27.63
2022-08-28T05:34:17.034Z,27.88
2022-08-28T05:39:21.149Z,27.88
2022-08-28T05:44:24.515Z,27.82
2022-08-28T05:49:31.834Z,28.09
2022-08-28T05:54:35.270Z,28.28
2022-08-28T05:59:39.362Z,28.33
2022-08-28T06:04:42.715Z,28.41
2022-08-28T06:09:46.304Z,28.44
2022-08-28T06:14:52.283Z,28.63
2022-08-28T06:19:58.507Z,29.00
2022-08-28T06:25:07.471Z,30.16
2022-08-28T06:30:11.646Z,30.74
2022-08-28T06:35:15.056Z,30.55
2022-08-28T06:40:24.164Z,30.20
2022-08-28T06:45:44.725Z,29.85
2022-08-28T06:50:50.659Z,29.54
2022-08-28T06:56:03.125Z,29.51
2022-08-28T07:01:10.985Z,29.62
2022-08-28T07:06:18.414Z,29.43
2022-08-28T07:11:30.645Z,29.39
2022-08-28T07:16:36.970Z,29.41
2022-08-28T07:21:43.286Z,29.37
2022-08-28T07:26:48.021Z,29.47
2022-08-28T07:31:54.232Z,29.57
2022-08-28T07:36:57.672Z,29.68
2022-08-28T07:42:02.642Z,29.77
2022-08-28T07:47:08.799Z,28.71
2022-08-28T07:52:13.466Z,27.98
2022-08-28T07:57:16.998Z,27.78
2022-08-28T08:02:20.947Z,27.73
2022-08-28T08:07:25.754Z,28.07
2022-08-28T08:12:49.933Z,28.47
2022-08-28T08:17:56.127Z,28.74
2022-08-28T08:22:59.330Z,29.02
2022-08-28T08:28:02.946Z,29.51
2022-08-28T08:33:06.363Z,29.68
2022-08-28T08:38:09.643Z,29.85
2022-08-28T08:43:18.299Z,30.16
2022-08-28T08:48:32.204Z,30.51
2022-08-28T08:53:51.481Z,30.66
2022-08-28T08:58:56.020Z,30.67
2022-08-28T09:04:08.860Z,30.69
2022-08-28T09:09:35.486Z,30.71
2022-08-28T09:15:01.428Z,30.83
2022-08-28T09:20:08.462Z,30.77
2022-08-28T09:25:32.760Z,30.49
2022-08-28T09:30:37.497Z,30.36
2022-08-28T09:35:41.511Z,30.23
2022-08-28T09:40:45.545Z,30.19
2022-08-28T09:46:24.550Z,30.14
2022-08-28T09:51:30.171Z,30.09
2022-08-28T09:56:36.167Z,30.04
2022-08-28T10:01:43.406Z,29.98
2022-08-28T10:07:16.502Z,29.94
2022-08-28T10:12:38.825Z,29.93
2022-08-28T10:17:56.388Z,29.88
2022-08-28T10:23:23.963Z,29.75
2022-08-28T10:28:42.919Z,29.70
2022-08-28T10:33:49.166Z,29.71
2022-08-28T10:39:32.254Z,29.61
2022-08-28T10:44:48.669Z,29.57
2022-08-28T10:49:55.719Z,29.49
2022-08-28T10:55:13.211Z,29.42
2022-08-28T11:00:22.958Z,29.42
2022-08-28T11:05:33.061Z,29.48
2022-08-28T11:10:39.893Z,29.53
2022-08-28T11:15:51.550Z,29.58
2022-08-28T11:21:14.973Z,29.37
2022-08-28T11:26:56.557Z,29.14
2022-08-28T11:32:32.005Z,29.25
2022-08-28T11:37:40.244Z,29.17
2022-08-28T11:42:43.741Z,29.04
2022-08-28T11:47:52.945Z,29.05
2022-08-28T11:53:37.613Z,28.98
2022-08-28T11:58:56.905Z,29.02
2022-08-28T12:04:10.021Z,29.02
2022-08-28T12:09:43.811Z,28.97
2022-08-28T12:15:00.200Z,28.87
2022-08-28T12:20:25.419Z,28.89
2022-08-28T12:25:34.954Z,28.93
2022-08-28T12:30:48.219Z,28.82
2022-08-28T12:36:01.020Z,28.67
2022-08-28T12:41:04.612Z,28.64
2022-08-28T12:46:19.024Z,28.56
2022-08-28T12:51:26.155Z,28.47
2022-08-28T12:56:33.550Z,28.37
2022-08-28T13:01:37.143Z,28.32
2022-08-28T13:06:41.269Z,28.35
2022-08-28T13:11:47.836Z,28.38
2022-08-28T13:16:54.559Z,28.38
2022-08-28T13:22:01.601Z,28.34
2022-08-28T13:27:26.127Z,28.29
2022-08-28T13:32:33.868Z,28.26
2022-08-28T13:37:45.418Z,28.22
2022-08-28T13:42:49.184Z,28.22
2022-08-28T13:47:58.310Z,28.17
2022-08-28T13:53:02.600Z,28.09
2022-08-28T13:58:07.621Z,28.09
2022-08-28T14:03:11.642Z,28.03
2022-08-28T14:08:15.199Z,27.99
2022-08-28T14:13:19.347Z,27.89
2022-08-28T14:18:27.366Z,27.83
2022-08-28T14:23:31.474Z,27.82
2022-08-28T14:28:34.840Z,27.70
2022-08-28T14:33:38.153Z,27.60
2022-08-28T14:38:41.646Z,27.55
2022-08-28T14:43:45.405Z,27.45
2022-08-28T14:48:49.806Z,27.32
2022-08-28T14:53:56.146Z,27.22
2022-08-28T14:59:00.997Z,27.18
2022-08-28T15:04:07.113Z,27.13
2022-08-28T15:09:12.969Z,27.05
2022-08-28T15:14:16.705Z,27.00
2022-08-28T15:19:20.209Z,26.94
2022-08-28T15:24:28.156Z,26.94
2022-08-28T15:29:31.698Z,26.90
2022-08-28T15:34:35.545Z,26.85
2022-08-28T15:39:39.719Z,26.75
2022-08-28T15:44:43.492Z,26.65
2022-08-28T15:49:53.394Z,26.53
2022-08-28T15:54:58.942Z,26.49
2022-08-28T16:00:04.170Z,26.45
2022-08-28T16:05:10.385Z,26.38
2022-08-28T16:10:13.900Z,26.34
2022-08-28T16:15:21.235Z,26.33
2022-08-28T16:20:25.410Z,26.27
2022-08-28T16:25:28.938Z,26.27
2022-08-28T16:30:34.122Z,26.23
2022-08-28T16:35:54.808Z,26.19
2022-08-28T16:41:24.845Z,26.14
2022-08-28T16:46:31.710Z,26.09
2022-08-28T16:51:35.762Z,26.07
2022-08-28T16:56:39.177Z,26.06
2022-08-28T17:01:42.917Z,26.03
2022-08-28T17:06:55.844Z,26.04
2022-08-28T17:12:09.651Z,26.02
2022-08-28T17:17:14.792Z,26.01
2022-08-28T17:22:18.436Z,26.00
2022-08-28T17:27:26.090Z,26.01
2022-08-28T17:32:29.586Z,26.02
2022-08-28T17:37:37.605Z,26.00
2022-08-28T17:42:44.350Z,25.99
2022-08-28T17:47:48.772Z,26.00
2022-08-28T17:52:54.353Z,26.03
2022-08-28T17:58:03.912Z,26.05
2022-08-28T18:03:07.425Z,26.02
2022-08-28T18:08:11.154Z,26.02
2022-08-28T18:13:14.868Z,26.00
2022-08-28T18:18:18.729Z,25.99
2022-08-28T18:23:24.938Z,26.01
2022-08-28T18:28:28.542Z,26.00
2022-08-28T18:33:32.299Z,25.99
2022-08-28T18:38:36.100Z,25.99
2022-08-28T18:43:39.975Z,25.98
2022-08-28T18:48:43.589Z,25.98
2022-08-28T18:53:47.369Z,26.02
2022-08-28T18:58:54.203Z,26.07
2022-08-28T19:04:04.894Z,26.12
2022-08-28T19:09:08.651Z,26.17
2022-08-28T19:14:17.642Z,26.23
2022-08-28T19:19:21.995Z,26.26
2022-08-28T19:24:30.243Z,26.31
2022-08-28T19:29:37.494Z,26.37
2022-08-28T19:34:43.365Z,26.38
2022-08-28T19:39:56.265Z,26.40
2022-08-28T19:45:03.367Z,26.40
2022-08-28T19:50:09.991Z,26.42
2022-08-28T19:55:23.655Z,26.42
2022-08-28T20:00:28.741Z,26.41
2022-08-28T20:05:31.902Z,26.38
2022-08-28T20:10:41.195Z,26.39
2022-08-28T20:15:46.636Z,26.36
2022-08-28T20:20:52.021Z,26.36
2022-08-28T20:25:55.445Z,26.36
2022-08-28T20:30:59.375Z,26.37
2022-08-28T20:36:06.276Z,26.35
2022-08-28T20:41:17.848Z,26.38
2022-08-28T20:46:23.876Z,26.34
2022-08-28T20:51:27.526Z,26.33
2022-08-28T20:56:30.870Z,26.25
2022-08-28T21:01:37.384Z,26.16
2022-08-28T21:06:41.164Z,26.07
2022-08-28T21:11:48.629Z,25.99
2022-08-28T21:16:52.155Z,25.91
2022-08-28T21:21:55.988Z,25.86
2022-08-28T21:26:59.669Z,25.75
2022-08-28T21:32:03.970Z,25.76
2022-08-28T21:37:11.261Z,25.72
2022-08-28T21:42:14.842Z,25.68
2022-08-28T21:47:19.331Z,25.66
2022-08-28T21:52:25.920Z,25.67
2022-08-28T21:57:30.311Z,25.64
2022-08-28T22:02:33.871Z,25.67
2022-08-28T22:07:37.693Z,25.67
2022-08-28T22:12:41.118Z,25.68
2022-08-28T22:17:44.527Z,25.69
2022-08-28T22:22:47.854Z,25.81
2022-08-28T22:27:52.629Z,25.91
2022-08-28T22:33:03.954Z,26.01
2022-08-28T22:38:13.166Z,26.02
2022-08-28T22:43:18.667Z,26.09
2022-08-28T22:48:22.820Z,26.09
2022-08-28T22:53:30.947Z,26.09
2022-08-28T22:58:34.910Z,26.12
2022-08-28T23:03:39.420Z,26.14
2022-08-28T23:08:43.562Z,26.16
2022-08-28T23:13:47.306Z,26.16
2022-08-28T23:19:08.664Z,26.16
2022-08-28T23:24:14.259Z,26.13
2022-08-28T23:29:18.894Z,26.12
2022-08-28T23:34:22.206Z,26.10
2022-08-28T23:39:27.811Z,26.10
2022-08-28T23:44:31.349Z,26.08
2022-08-28T23:49:41.513Z,26.09
2022-08-28T23:54:46.331Z,26.09
2022-08-28T23:59:50.294Z,26.09
